createdAt,value
2018-09-09T00:04:31.954Z,76.40
2018-09-09T00:09:40.477Z,76.80
2018-09-09T00:14:43.516Z,77.20
2018-09-09T00:19:46.544Z,78.00
2018-09-09T00:24:49.554Z,77.90
2018-09-09T00:29:52.556Z,78.50
2018-09-09T00:34:55.602Z,78.60
2018-09-09T00:39:58.611Z,78.80
2018-09-09T00:45:01.711Z,78.60
2018-09-09T00:50:10.296Z,78.00
2018-09-09T00:55:14.535Z,78.10
2018-09-09T01:00:21.962Z,77.30
2018-09-09T01:05:25.075Z,78.00
2018-09-09T01:10:28.182Z,78.20
2018-09-09T01:15:31.299Z,78.60
2018-09-09T01:20:34.315Z,77.50
2018-09-09T01:25:37.406Z,77.80
2018-09-09T01:30:40.507Z,78.10
2018-09-09T01:35:43.723Z,77.50
2018-09-09T01:40:46.719Z,76.90
2018-09-09T01:45:49.815Z,77.20
2018-09-09T01:50:52.930Z,76.70
2018-09-09T01:55:56.035Z,76.60
2018-09-09T02:00:59.040Z,76.70
2018-09-09T02:06:02.105Z,76.00
2018-09-09T02:11:05.143Z,75.00
2018-09-09T02:16:08.451Z,75.80
2018-09-09T02:21:11.443Z,74.80
2018-09-09T02:26:14.526Z,75.00
2018-09-09T02:31:17.555Z,75.20
2018-09-09T02:36:20.676Z,75.30
2018-09-09T02:41:23.675Z,75.10
2018-09-09T02:46:26.658Z,75.10
2018-09-09T02:51:29.659Z,75.20
2018-09-09T02:56:32.675Z,75.60
2018-09-09T03:01:35.667Z,75.70
2018-09-09T03:06:38.654Z,75.30
2018-09-09T03:11:41.694Z,75.10
2018-09-09T03:16:44.690Z,75.10
2018-09-09T03:21:47.692Z,75.20
2018-09-09T03:26:50.770Z,75.50
2018-09-09T03:31:53.778Z,75.70
2018-09-09T03:36:56.758Z,75.90
2018-09-09T03:41:59.794Z,76.00
2018-09-09T03:47:02.910Z,76.00
2018-09-09T03:52:05.907Z,75.90
2018-09-09T03:57:08.914Z,75.80
2018-09-09T04:02:12.016Z,75.10
2018-09-09T04:07:15.019Z,75.30
2018-09-09T04:12:18.126Z,75.50
2018-09-09T04:17:21.163Z,75.80
2018-09-09T04:22:24.164Z,75.70
2018-09-09T04:27:27.238Z,74.80
2018-09-09T04:32:30.276Z,75.30
2018-09-09T04:37:33.270Z,75.30
2018-09-09T04:42:36.269Z,75.00
2018-09-09T04:47:39.447Z,75.70
2018-09-09T04:52:42.674Z,75.40
2018-09-09T04:57:45.762Z,75.90
2018-09-09T05:02:48.802Z,75.30
2018-09-09T05:07:51.832Z,75.50
2018-09-09T05:12:54.838Z,75.80
2018-09-09T05:17:57.846Z,76.20
2018-09-09T05:23:00.886Z,76.50
2018-09-09T05:28:03.935Z,76.60
2018-09-09T05:33:06.943Z,75.80
2018-09-09T05:38:09.949Z,76.00
2018-09-09T05:43:13.103Z,76.30
2018-09-09T05:48:16.202Z,75.20
2018-09-09T05:53:19.326Z,75.50
2018-09-09T05:58:22.350Z,76.40
2018-09-09T06:03:25.360Z,75.90
2018-09-09T06:08:28.368Z,76.60
2018-09-09T06:13:31.349Z,75.20
2018-09-09T06:18:34.357Z,74.60
2018-09-09T06:23:37.392Z,75.10
2018-09-09T06:28:40.424Z,75.50
2018-09-09T06:33:43.478Z,74.70
2018-09-09T06:38:46.466Z,74.50
2018-09-09T06:43:49.466Z,74.00
2018-09-09T06:48:52.466Z,73.60
2018-09-09T06:53:55.500Z,74.00
2018-09-09T06:58:58.539Z,73.60
2018-09-09T07:04:01.906Z,73.10
2018-09-09T07:09:06.322Z,73.00
2018-09-09T07:14:09.342Z,73.20
2018-09-09T07:19:12.479Z,73.40
2018-09-09T07:24:15.445Z,72.00
2018-09-09T07:29:18.423Z,71.20
2018-09-09T07:34:21.464Z,69.60
2018-09-09T07:39:24.503Z,71.40
2018-09-09T07:44:27.502Z,73.20
2018-09-09T07:49:30.515Z,67.90
2018-09-09T07:54:33.515Z,68.50
2018-09-09T07:59:36.522Z,67.70
2018-09-09T08:04:39.523Z,66.80
2018-09-09T08:09:42.554Z,65.20
2018-09-09T08:14:45.622Z,65.20
2018-09-09T08:19:48.671Z,63.10
2018-09-09T08:24:51.686Z,64.10
2018-09-09T08:29:54.739Z,61.60
2018-09-09T08:34:57.735Z,61.30
2018-09-09T08:40:00.730Z,60.50
2018-09-09T08:45:03.936Z,64.50
2018-09-09T08:50:06.934Z,60.60
2018-09-09T08:55:09.934Z,59.20
2018-09-09T09:00:13.031Z,56.10
2018-09-09T09:05:16.299Z,57.30
2018-09-09T09:10:19.449Z,55.30
2018-09-09T09:15:22.543Z,54.00
2018-09-09T09:20:25.670Z,52.70
2018-09-09T09:25:28.838Z,53.20
2018-09-09T09:30:32.443Z,49.70
2018-09-09T09:35:54.054Z,50.70
2018-09-09T09:40:57.066Z,49.70
2018-09-09T09:46:00.135Z,51.10
2018-09-09T09:51:03.144Z,50.80
2018-09-09T09:56:07.071Z,48.70
2018-09-09T10:01:10.099Z,48.60
2018-09-09T10:06:13.175Z,48.90
2018-09-09T10:11:16.190Z,49.80
2018-09-09T10:16:19.230Z,48.00
2018-09-09T10:21:22.230Z,47.30
2018-09-09T10:26:25.235Z,47.30
2018-09-09T10:31:28.243Z,45.60
2018-09-09T10:36:31.242Z,44.70
2018-09-09T10:41:34.302Z,45.60
2018-09-09T10:46:37.341Z,46.20
2018-09-09T10:51:40.322Z,44.00
2018-09-09T10:56:43.410Z,43.30
2018-09-09T11:01:46.420Z,42.80
2018-09-09T11:06:49.535Z,42.60
2018-09-09T11:11:52.542Z,41.60
2018-09-09T11:16:55.558Z,41.60
2018-09-09T11:21:58.579Z,40.60
2018-09-09T11:27:01.639Z,37.40
2018-09-09T11:32:04.682Z,39.30
2018-09-09T11:37:07.752Z,38.20
2018-09-09T11:42:11.051Z,38.40
2018-09-09T11:47:14.113Z,38.60
2018-09-09T11:52:17.222Z,37.60
2018-09-09T11:57:20.211Z,37.40
2018-09-09T12:02:23.226Z,37.20
2018-09-09T12:07:26.255Z,37.10
2018-09-09T12:12:29.262Z,35.60
2018-09-09T12:17:32.763Z,37.00
2018-09-09T12:22:35.802Z,35.70
2018-09-09T12:27:38.810Z,34.40
2018-09-09T12:32:41.881Z,35.50
2018-09-09T12:37:44.945Z,35.50
2018-09-09T12:42:52.259Z,35.50
2018-09-09T12:48:00.822Z,36.00
2018-09-09T12:53:03.856Z,36.10
2018-09-09T12:58:06.949Z,35.40
2018-09-09T13:03:10.039Z,36.10
2018-09-09T13:08:13.045Z,36.70
2018-09-09T13:13:18.043Z,37.30
2018-09-09T13:18:21.063Z,37.30
2018-09-09T13:23:24.127Z,37.50
2018-09-09T13:28:27.210Z,37.30
2018-09-09T13:33:30.316Z,38.00
2018-09-09T13:38:33.331Z,37.90
2018-09-09T13:43:36.427Z,38.60
2018-09-09T13:48:39.483Z,37.70
2018-09-09T13:53:42.514Z,36.50
2018-09-09T13:58:45.512Z,37.30
2018-09-09T14:03:48.546Z,37.50
2018-09-09T14:08:51.552Z,36.20
2018-09-09T14:13:54.596Z,36.50
2018-09-09T14:18:57.606Z,35.70
2018-09-09T14:24:00.670Z,35.30
2018-09-09T14:29:03.688Z,33.90
2018-09-09T14:34:06.756Z,33.60
2018-09-09T14:39:10.413Z,34.50
2018-09-09T14:44:13.398Z,33.80
2018-09-09T14:49:16.406Z,34.50
2018-09-09T14:54:19.547Z,34.70
2018-09-09T14:59:22.540Z,33.80
2018-09-09T15:04:25.526Z,33.50
2018-09-09T15:09:28.520Z,35.20
2018-09-09T15:14:31.610Z,32.80
2018-09-09T15:19:34.611Z,32.50
2018-09-09T15:24:37.644Z,32.30
2018-09-09T15:29:40.666Z,32.80
2018-09-09T15:34:43.679Z,31.90
2018-09-09T15:39:46.719Z,32.20
2018-09-09T15:44:49.779Z,31.90
2018-09-09T15:49:52.822Z,31.40
2018-09-09T15:54:55.859Z,31.40
2018-09-09T15:59:58.928Z,30.10
2018-09-09T16:05:02.015Z,28.60
2018-09-09T16:10:05.190Z,29.60
2018-09-09T16:15:08.200Z,29.30
2018-09-09T16:20:11.211Z,29.10
2018-09-09T16:25:14.724Z,28.50
2018-09-09T16:30:17.738Z,29.40
2018-09-09T16:35:20.850Z,29.90
2018-09-09T16:40:23.850Z,29.60
2018-09-09T16:45:26.887Z,29.40
2018-09-09T16:50:29.917Z,29.60
2018-09-09T16:55:32.975Z,30.80
2018-09-09T17:00:36.131Z,32.40
2018-09-09T17:05:39.183Z,33.10
2018-09-09T17:10:42.208Z,35.30
2018-09-09T17:15:45.305Z,36.80
2018-09-09T17:20:48.299Z,38.10
2018-09-09T17:25:51.502Z,38.60
2018-09-09T17:30:54.527Z,40.50
2018-09-09T17:35:57.603Z,41.70
2018-09-09T17:41:00.620Z,42.70
2018-09-09T17:46:03.779Z,43.60
2018-09-09T17:51:07.001Z,44.40
2018-09-09T17:56:10.401Z,45.10
2018-09-09T18:01:13.634Z,45.30
2018-09-09T18:06:16.751Z,45.50
2018-09-09T18:11:19.751Z,46.10
2018-09-09T18:16:22.992Z,46.60
2018-09-09T18:21:26.933Z,46.90
2018-09-09T18:26:29.970Z,47.80
2018-09-09T18:31:33.543Z,48.40
2018-09-09T18:36:36.601Z,48.40
2018-09-09T18:41:39.674Z,49.10
2018-09-09T18:46:42.712Z,49.10
2018-09-09T18:51:45.706Z,49.50
2018-09-09T18:56:48.736Z,50.40
2018-09-09T19:01:51.742Z,50.90
2018-09-09T19:06:54.749Z,51.30
2018-09-09T19:11:57.738Z,51.90
2018-09-09T19:17:00.755Z,52.10
2018-09-09T19:22:03.783Z,52.60
2018-09-09T19:27:06.800Z,53.10
2018-09-09T19:32:09.845Z,53.60
2018-09-09T19:37:12.996Z,53.60
2018-09-09T19:42:16.091Z,53.80
2018-09-09T19:47:19.213Z,54.20
2018-09-09T19:52:22.199Z,54.70
2018-09-09T19:57:26.105Z,55.00
2018-09-09T20:02:29.432Z,55.50
2018-09-09T20:07:32.861Z,56.00
2018-09-09T20:12:35.909Z,56.40
2018-09-09T20:17:39.056Z,56.60
2018-09-09T20:22:42.103Z,56.70
2018-09-09T20:27:45.110Z,56.80
2018-09-09T20:32:48.151Z,57.30
2018-09-09T20:37:51.183Z,58.10
2018-09-09T20:42:54.288Z,58.30
2018-09-09T20:47:57.393Z,58.20
2018-09-09T20:53:00.499Z,58.70
2018-09-09T20:58:03.603Z,58.80
2018-09-09T21:03:06.707Z,59.20
2018-09-09T21:08:09.731Z,59.50
2018-09-09T21:13:12.752Z,60.00
2018-09-09T21:18:15.827Z,60.20
2018-09-09T21:23:18.876Z,60.50
2018-09-09T21:28:21.910Z,61.60
2018-09-09T21:33:25.947Z,62.40
2018-09-09T21:38:28.994Z,63.00
2018-09-09T21:43:32.048Z,63.10
2018-09-09T21:48:35.103Z,62.90
2018-09-09T21:53:38.105Z,62.70
2018-09-09T21:58:41.098Z,62.50
2018-09-09T22:03:44.115Z,62.50
2018-09-09T22:08:47.872Z,62.70
2018-09-09T22:13:50.931Z,63.20
2018-09-09T22:18:53.948Z,63.90
2018-09-09T22:23:57.073Z,64.60
2018-09-09T22:29:00.084Z,65.00
2018-09-09T22:34:03.076Z,65.60
2018-09-09T22:39:08.033Z,65.60
2018-09-09T22:44:12.132Z,66.10
2018-09-09T22:49:15.170Z,67.00
2018-09-09T22:54:18.170Z,67.00
2018-09-09T22:59:21.177Z,67.40
2018-09-09T23:04:24.154Z,68.40
2018-09-09T23:09:27.515Z,69.20
2018-09-09T23:14:30.507Z,69.20
2018-09-09T23:19:33.535Z,69.30
2018-09-09T23:24:36.567Z,70.20
2018-09-09T23:29:39.675Z,70.40
2018-09-09T23:34:42.699Z,71.20
2018-09-09T23:39:45.748Z,71.30
2018-09-09T23:44:48.795Z,72.10
2018-09-09T23:49:51.798Z,72.40
2018-09-09T23:54:54.838Z,73.20
2018-09-09T23:59:57.838Z,74.60
